createdAt,value
2019-05-05T00:00:47.637Z,0.00
2019-05-05T00:01:47.629Z,0.00
2019-05-05T00:02:47.628Z,0.00
2019-05-05T00:03:47.870Z,0.00
2019-05-05T00:04:47.616Z,0.00
2019-05-05T00:05:47.608Z,0.00
2019-05-05T00:06:47.611Z,0.00
2019-05-05T00:07:47.610Z,0.00
2019-05-05T00:08:47.567Z,0.00
2019-05-05T00:09:47.839Z,0.00
2019-05-05T00:10:47.568Z,0.00
2019-05-05T00:11:47.572Z,0.00
2019-05-05T00:12:47.563Z,0.00
2019-05-05T00:13:47.559Z,0.00
2019-05-05T00:14:47.540Z,0.00
2019-05-05T00:15:47.940Z,0.00
2019-05-05T00:16:47.538Z,0.00
2019-05-05T00:17:47.529Z,0.00
2019-05-05T00:18:47.524Z,0.00
2019-05-05T00:19:47.524Z,0.00
2019-05-05T00:20:47.515Z,0.00
2019-05-05T00:21:47.781Z,0.00
2019-05-05T00:22:47.542Z,0.00
2019-05-05T00:23:47.512Z,0.00
2019-05-05T00:24:47.486Z,0.00
2019-05-05T00:25:47.484Z,0.00
2019-05-05T00:26:47.482Z,0.00
2019-05-05T00:27:47.760Z,0.00
2019-05-05T00:28:47.469Z,0.00
2019-05-05T00:29:47.461Z,0.00
2019-05-05T00:30:47.452Z,0.00
2019-05-05T00:31:47.477Z,0.00
2019-05-05T00:32:47.419Z,0.00
2019-05-05T00:33:47.686Z,0.00
2019-05-05T00:34:47.404Z,0.00
2019-05-05T00:35:47.414Z,0.00
2019-05-05T00:36:47.421Z,0.00
2019-05-05T00:37:47.409Z,0.00
2019-05-05T00:38:47.385Z,0.00
2019-05-05T00:39:47.589Z,0.00
2019-05-05T00:40:47.400Z,0.00
2019-05-05T00:41:47.387Z,0.00
2019-05-05T00:42:47.377Z,0.00
2019-05-05T00:43:47.368Z,0.00
2019-05-05T00:44:47.652Z,0.00
2019-05-05T00:45:47.360Z,0.00
2019-05-05T00:46:47.325Z,0.00
2019-05-05T00:47:47.325Z,0.00
2019-05-05T00:48:47.321Z,0.00
2019-05-05T00:49:49.442Z,0.00
2019-05-05T00:50:47.309Z,0.00
2019-05-05T00:51:47.307Z,0.00
2019-05-05T00:52:47.299Z,0.00
2019-05-05T00:53:47.290Z,0.00
2019-05-05T00:54:47.596Z,0.00
2019-05-05T00:55:47.315Z,0.00
2019-05-05T00:56:47.281Z,0.00
2019-05-05T00:57:47.259Z,0.00
2019-05-05T00:58:47.243Z,0.00
2019-05-05T00:59:47.585Z,0.00
2019-05-05T01:00:47.248Z,0.00
2019-05-05T01:01:47.284Z,0.00
2019-05-05T01:02:47.234Z,0.00
2019-05-05T01:03:47.240Z,0.00
2019-05-05T01:04:47.533Z,0.00
2019-05-05T01:05:47.221Z,0.00
2019-05-05T01:06:47.253Z,0.00
2019-05-05T01:07:47.186Z,0.00
2019-05-05T01:08:47.214Z,0.00
2019-05-05T01:09:47.330Z,0.00
2019-05-05T01:10:47.190Z,0.00
2019-05-05T01:11:47.172Z,0.00
2019-05-05T01:12:47.212Z,0.00
2019-05-05T01:13:47.666Z,0.00
2019-05-05T01:14:47.161Z,0.00
2019-05-05T01:15:47.166Z,0.00
2019-05-05T01:16:47.146Z,0.00
2019-05-05T01:17:47.179Z,0.00
2019-05-05T01:18:47.387Z,0.00
2019-05-05T01:20:00.256Z,0.00
2019-05-05T01:20:47.098Z,0.00
2019-05-05T01:21:47.125Z,0.00
2019-05-05T01:22:47.100Z,0.00
2019-05-05T01:23:47.408Z,0.00
2019-05-05T01:24:47.105Z,0.00
2019-05-05T01:25:48.734Z,0.00
2019-05-05T01:26:47.091Z,0.00
2019-05-05T01:27:47.101Z,0.00
2019-05-05T01:28:47.418Z,0.00
2019-05-05T01:29:47.057Z,0.00
2019-05-05T01:30:47.045Z,0.00
2019-05-05T01:31:47.050Z,0.00
2019-05-05T01:32:47.019Z,0.00
2019-05-05T01:33:47.050Z,0.00
2019-05-05T01:34:47.325Z,0.00
2019-05-05T01:35:47.020Z,0.00
2019-05-05T01:36:47.014Z,0.00
2019-05-05T01:37:46.985Z,0.00
2019-05-05T01:38:46.999Z,0.00
2019-05-05T01:39:46.996Z,0.00
2019-05-05T01:40:47.320Z,0.00
2019-05-05T01:41:46.980Z,0.00
2019-05-05T01:42:46.976Z,0.00
2019-05-05T01:43:46.980Z,0.00
2019-05-05T01:44:46.975Z,0.00
2019-05-05T01:45:47.342Z,0.00
2019-05-05T01:46:46.930Z,0.00
2019-05-05T01:47:46.948Z,0.00
2019-05-05T01:48:46.928Z,0.00
2019-05-05T01:49:46.931Z,0.00
2019-05-05T01:50:46.903Z,0.00
2019-05-05T01:51:47.402Z,0.00
2019-05-05T01:52:46.904Z,0.00
2019-05-05T01:53:46.892Z,0.00
2019-05-05T01:54:46.909Z,0.00
2019-05-05T01:55:46.883Z,0.00
2019-05-05T01:56:47.314Z,0.00
2019-05-05T01:57:46.854Z,0.00
2019-05-05T01:58:46.905Z,0.00
2019-05-05T01:59:46.852Z,0.00
2019-05-05T02:00:46.851Z,0.00
2019-05-05T02:01:46.847Z,0.00
2019-05-05T02:02:47.136Z,0.00
2019-05-05T02:03:46.826Z,0.00
2019-05-05T02:04:46.822Z,0.00
2019-05-05T02:05:46.828Z,0.00
2019-05-05T02:06:46.814Z,0.00
2019-05-05T02:07:47.311Z,0.00
2019-05-05T02:08:46.833Z,0.00
2019-05-05T02:09:46.781Z,0.00
2019-05-05T02:10:46.775Z,0.00
2019-05-05T02:11:46.778Z,0.00
2019-05-05T02:12:46.790Z,0.00
2019-05-05T02:13:47.238Z,0.00
2019-05-05T02:14:46.770Z,0.00
2019-05-05T02:15:46.742Z,0.00
2019-05-05T02:16:46.769Z,0.00
2019-05-05T02:17:46.723Z,0.00
2019-05-05T02:18:46.740Z,0.00
2019-05-05T02:19:47.010Z,0.00
2019-05-05T02:20:46.714Z,0.00
2019-05-05T02:21:46.745Z,0.00
2019-05-05T02:22:46.678Z,0.00
2019-05-05T02:23:46.694Z,0.00
2019-05-05T02:24:46.677Z,0.00
2019-05-05T02:25:47.285Z,0.00
2019-05-05T02:26:46.662Z,0.00
2019-05-05T02:27:46.661Z,0.00
2019-05-05T02:28:46.627Z,0.00
2019-05-05T02:29:46.648Z,0.00
2019-05-05T02:30:46.722Z,0.00
2019-05-05T02:31:47.229Z,0.00
2019-05-05T02:32:46.631Z,0.00
2019-05-05T02:33:46.669Z,0.00
2019-05-05T02:34:46.603Z,0.00
2019-05-05T02:35:46.641Z,0.00
2019-05-05T02:36:46.588Z,0.00
2019-05-05T02:37:46.889Z,0.00
2019-05-05T02:38:46.637Z,0.00
2019-05-05T02:39:57.937Z,0.00
2019-05-05T02:40:46.569Z,0.00
2019-05-05T02:41:46.575Z,0.00
2019-05-05T02:42:46.561Z,0.00
2019-05-05T02:43:47.087Z,0.00
2019-05-05T02:44:46.561Z,0.00
2019-05-05T02:45:46.516Z,0.00
2019-05-05T02:46:46.540Z,0.00
2019-05-05T02:47:46.568Z,0.00
2019-05-05T02:48:46.526Z,0.00
2019-05-05T02:49:46.810Z,0.00
2019-05-05T02:50:54.912Z,0.00
2019-05-05T02:51:46.510Z,0.00
2019-05-05T02:52:46.485Z,0.00
2019-05-05T02:53:46.489Z,0.00
2019-05-05T02:54:46.460Z,0.00
2019-05-05T02:55:46.950Z,0.00
2019-05-05T02:56:46.480Z,0.00
2019-05-05T02:57:46.484Z,0.00
2019-05-05T02:58:46.459Z,0.00
2019-05-05T02:59:46.480Z,0.00
2019-05-05T03:00:46.421Z,0.00
2019-05-05T03:01:46.738Z,0.00
2019-05-05T03:02:46.425Z,0.00
2019-05-05T03:03:46.408Z,0.00
2019-05-05T03:04:46.407Z,0.00
2019-05-05T03:05:46.383Z,0.00
2019-05-05T03:06:46.850Z,0.00
2019-05-05T03:07:46.362Z,0.00
2019-05-05T03:08:46.371Z,0.00
2019-05-05T03:09:46.365Z,0.00
2019-05-05T03:10:46.357Z,0.00
2019-05-05T03:11:46.346Z,0.00
2019-05-05T03:12:46.946Z,0.00
2019-05-05T03:13:46.327Z,0.00
2019-05-05T03:14:46.339Z,0.00
2019-05-05T03:15:46.339Z,0.00
2019-05-05T03:16:46.309Z,0.00
2019-05-05T03:17:46.315Z,0.00
2019-05-05T03:18:46.590Z,0.00
2019-05-05T03:19:46.300Z,0.00
2019-05-05T03:20:46.302Z,0.00
2019-05-05T03:21:46.261Z,0.00
2019-05-05T03:22:46.276Z,0.00
2019-05-05T03:23:46.251Z,0.00
2019-05-05T03:24:46.608Z,0.00
2019-05-05T03:25:46.254Z,0.00
2019-05-05T03:26:46.230Z,0.00
2019-05-05T03:27:46.240Z,0.00
2019-05-05T03:28:46.219Z,0.00
2019-05-05T03:29:46.769Z,0.00
2019-05-05T03:30:46.196Z,0.00
2019-05-05T03:31:46.258Z,0.00
2019-05-05T03:32:46.234Z,0.00
2019-05-05T03:33:46.305Z,0.00
2019-05-05T03:34:46.184Z,0.00
2019-05-05T03:35:46.491Z,0.00
2019-05-05T03:36:46.154Z,0.00
2019-05-05T03:37:46.152Z,0.00
2019-05-05T03:38:46.137Z,0.00
2019-05-05T03:39:46.141Z,0.00
2019-05-05T03:40:46.725Z,0.00
2019-05-05T03:41:46.135Z,0.00
2019-05-05T03:42:46.123Z,0.00
2019-05-05T03:43:46.093Z,0.00
2019-05-05T03:44:46.118Z,0.00
2019-05-05T03:45:46.118Z,0.00
2019-05-05T03:46:46.392Z,0.00
2019-05-05T03:47:46.086Z,0.00
2019-05-05T03:48:46.075Z,0.00
2019-05-05T03:49:46.077Z,0.00
2019-05-05T03:50:46.102Z,0.00
2019-05-05T03:51:46.270Z,0.00
2019-05-05T03:52:46.054Z,0.00
2019-05-05T03:53:46.045Z,0.00
2019-05-05T03:54:46.036Z,0.00
2019-05-05T03:55:46.064Z,0.00
2019-05-05T03:56:46.669Z,0.00
2019-05-05T03:57:46.020Z,0.00
2019-05-05T03:58:46.002Z,0.00
2019-05-05T03:59:46.003Z,0.00
2019-05-05T04:00:45.989Z,0.00
2019-05-05T04:01:46.044Z,0.00
2019-05-05T04:02:46.286Z,0.00
2019-05-05T04:03:45.951Z,0.00
2019-05-05T04:04:45.978Z,0.00
2019-05-05T04:05:45.942Z,0.00
2019-05-05T04:06:45.947Z,0.00
2019-05-05T04:07:46.457Z,0.00
2019-05-05T04:08:45.947Z,0.00
2019-05-05T04:09:45.925Z,0.00
2019-05-05T04:10:45.926Z,0.00
2019-05-05T04:11:45.927Z,0.00
2019-05-05T04:12:45.956Z,0.00
2019-05-05T04:13:46.732Z,0.00
2019-05-05T04:14:45.912Z,0.00
2019-05-05T04:15:45.881Z,0.00
2019-05-05T04:16:45.870Z,0.00
2019-05-05T04:17:45.840Z,0.00
2019-05-05T04:18:45.895Z,0.00
2019-05-05T04:19:46.402Z,0.00
2019-05-05T04:20:45.842Z,0.00
2019-05-05T04:21:45.832Z,0.00
2019-05-05T04:22:45.820Z,0.00
2019-05-05T04:23:45.806Z,0.00
2019-05-05T04:24:45.844Z,0.00
2019-05-05T04:25:46.416Z,0.00
2019-05-05T04:26:45.785Z,0.00
2019-05-05T04:27:45.770Z,0.00
2019-05-05T04:28:45.792Z,0.00
2019-05-05T04:29:45.753Z,0.00
2019-05-05T04:30:45.767Z,0.00
2019-05-05T04:31:46.477Z,0.00
2019-05-05T04:32:45.797Z,0.00
2019-05-05T04:33:45.755Z,0.00
2019-05-05T04:34:45.781Z,0.00
2019-05-05T04:35:45.747Z,0.00
2019-05-05T04:36:45.700Z,0.00
2019-05-05T04:37:46.407Z,0.00
2019-05-05T04:38:45.701Z,0.00
2019-05-05T04:39:45.692Z,0.00
2019-05-05T04:40:45.705Z,0.00
2019-05-05T04:41:45.704Z,0.00
2019-05-05T04:42:45.663Z,0.00
2019-05-05T04:43:46.224Z,0.00
2019-05-05T04:44:45.647Z,0.00
2019-05-05T04:45:45.638Z,0.00
2019-05-05T04:46:45.645Z,0.00
2019-05-05T04:47:45.678Z,0.00
2019-05-05T04:48:45.689Z,0.00
2019-05-05T04:49:45.980Z,0.00
2019-05-05T04:50:45.604Z,0.00
2019-05-05T04:51:50.036Z,0.00
2019-05-05T04:52:45.594Z,0.00
2019-05-05T04:53:45.585Z,0.00
2019-05-05T04:54:45.577Z,0.00
2019-05-05T04:55:45.932Z,0.00
2019-05-05T04:56:45.560Z,0.00
2019-05-05T04:57:45.577Z,0.00
2019-05-05T04:58:45.568Z,0.00
2019-05-05T04:59:45.617Z,0.00
2019-05-05T05:00:45.529Z,0.00
2019-05-05T05:01:45.840Z,0.00
2019-05-05T05:02:45.533Z,0.00
2019-05-05T05:03:45.505Z,0.00
2019-05-05T05:04:45.507Z,0.00
2019-05-05T05:05:45.544Z,0.00
2019-05-05T05:06:45.510Z,0.00
2019-05-05T05:07:45.689Z,0.00
2019-05-05T05:08:45.500Z,0.00
2019-05-05T05:09:45.468Z,0.00
2019-05-05T05:10:45.474Z,0.00
2019-05-05T05:11:45.441Z,0.00
2019-05-05T05:12:45.823Z,0.00
2019-05-05T05:13:45.425Z,0.00
2019-05-05T05:14:45.443Z,0.00
2019-05-05T05:15:45.428Z,0.00
2019-05-05T05:16:45.418Z,0.00
2019-05-05T05:17:45.419Z,0.00
2019-05-05T05:18:45.617Z,0.00
2019-05-05T05:19:45.437Z,0.00
2019-05-05T05:20:45.360Z,0.00
2019-05-05T05:21:57.596Z,0.00
2019-05-05T05:22:45.377Z,0.00
2019-05-05T05:23:45.823Z,0.00
2019-05-05T05:24:45.379Z,0.00
2019-05-05T05:25:45.384Z,0.00
2019-05-05T05:26:45.362Z,0.00
2019-05-05T05:27:45.352Z,0.00
2019-05-05T05:28:45.319Z,0.00
2019-05-05T05:29:45.813Z,0.00
2019-05-05T05:30:45.316Z,0.00
2019-05-05T05:31:45.290Z,0.00
2019-05-05T05:32:45.349Z,0.00
2019-05-05T05:33:45.278Z,0.00
2019-05-05T05:34:45.522Z,0.00
2019-05-05T05:35:45.275Z,0.00
2019-05-05T05:36:45.271Z,0.00
2019-05-05T05:37:45.245Z,0.00
2019-05-05T05:38:45.253Z,0.00
2019-05-05T05:39:45.255Z,0.00
2019-05-05T05:40:45.644Z,0.00
2019-05-05T05:41:45.218Z,0.00
2019-05-05T05:42:45.202Z,0.00
2019-05-05T05:43:45.212Z,0.00
2019-05-05T05:44:45.199Z,0.00
2019-05-05T05:45:45.715Z,0.00
2019-05-05T05:46:45.185Z,0.00
2019-05-05T05:47:45.185Z,0.00
2019-05-05T05:48:45.170Z,0.00
2019-05-05T05:49:45.214Z,0.00
2019-05-05T05:50:45.171Z,0.00
2019-05-05T05:51:45.501Z,0.00
2019-05-05T05:52:45.144Z,0.00
2019-05-05T05:53:45.123Z,0.00
2019-05-05T05:54:45.124Z,0.00
2019-05-05T05:55:45.141Z,0.00
2019-05-05T05:56:45.471Z,0.00
2019-05-05T05:57:45.103Z,0.00
2019-05-05T05:58:45.111Z,0.00
2019-05-05T05:59:45.067Z,0.00
2019-05-05T06:00:45.095Z,0.00
2019-05-05T06:01:45.428Z,0.00
2019-05-05T06:02:45.064Z,0.00
2019-05-05T06:03:45.097Z,0.00
2019-05-05T06:04:45.038Z,0.00
2019-05-05T06:05:45.058Z,0.00
2019-05-05T06:06:45.392Z,0.00
2019-05-05T06:07:45.041Z,0.00
2019-05-05T06:08:45.032Z,0.00
2019-05-05T06:09:45.025Z,0.00
2019-05-05T06:10:45.006Z,0.00
2019-05-05T06:11:45.292Z,0.00
2019-05-05T06:12:45.087Z,0.00
2019-05-05T06:13:47.459Z,0.00
2019-05-05T06:14:45.024Z,0.00
2019-05-05T06:15:44.941Z,0.00
2019-05-05T06:16:45.159Z,0.00
2019-05-05T06:17:44.982Z,0.00
2019-05-05T06:18:44.924Z,0.00
2019-05-05T06:19:44.972Z,0.00
2019-05-05T06:20:44.948Z,0.00
2019-05-05T06:21:45.333Z,0.00
2019-05-05T06:22:44.909Z,0.00
2019-05-05T06:23:44.909Z,0.00
2019-05-05T06:24:44.893Z,0.00
2019-05-05T06:25:44.987Z,0.00
2019-05-05T06:26:45.177Z,0.00
2019-05-05T06:27:44.867Z,0.00
2019-05-05T06:28:44.934Z,0.00
2019-05-05T06:29:44.830Z,0.00
2019-05-05T06:30:44.870Z,0.00
2019-05-05T06:31:44.914Z,0.00
2019-05-05T06:32:45.763Z,0.00
2019-05-05T06:33:44.829Z,0.00
2019-05-05T06:34:44.784Z,0.00
2019-05-05T06:35:44.804Z,0.00
2019-05-05T06:36:44.803Z,0.00
2019-05-05T06:37:46.678Z,0.00
2019-05-05T06:38:45.185Z,0.00
2019-05-05T06:39:44.757Z,0.00
2019-05-05T06:40:44.753Z,0.00
2019-05-05T06:41:44.737Z,0.00
2019-05-05T06:42:44.746Z,0.00
2019-05-05T06:43:44.753Z,0.00
2019-05-05T06:44:45.023Z,0.00
2019-05-05T06:45:44.718Z,0.00
2019-05-05T06:46:44.711Z,0.00
2019-05-05T06:47:44.693Z,0.00
2019-05-05T06:48:44.707Z,0.00
2019-05-05T06:49:44.707Z,0.00
2019-05-05T06:50:45.050Z,0.00
2019-05-05T06:51:44.664Z,0.00
2019-05-05T06:52:47.042Z,0.00
2019-05-05T06:53:44.668Z,0.00
2019-05-05T06:54:44.655Z,0.00
2019-05-05T06:55:44.642Z,0.00
2019-05-05T06:56:45.066Z,0.00
2019-05-05T06:57:44.602Z,0.00
2019-05-05T06:58:44.949Z,0.00
2019-05-05T06:59:44.595Z,0.00
2019-05-05T07:00:44.597Z,0.00
2019-05-05T07:01:44.595Z,0.00
2019-05-05T07:02:44.889Z,0.00
2019-05-05T07:03:44.559Z,0.00
2019-05-05T07:04:44.691Z,0.00
2019-05-05T07:05:44.553Z,0.00
2019-05-05T07:06:53.862Z,0.00
2019-05-05T07:07:44.536Z,0.00
2019-05-05T07:08:44.973Z,0.00
2019-05-05T07:09:44.529Z,0.00
2019-05-05T07:10:44.608Z,0.00
2019-05-05T07:11:44.519Z,0.00
2019-05-05T07:12:44.493Z,0.00
2019-05-05T07:13:44.506Z,0.00
2019-05-05T07:14:44.734Z,0.00
2019-05-05T07:15:44.466Z,0.00
2019-05-05T07:16:44.481Z,0.00
2019-05-05T07:17:44.464Z,0.00
2019-05-05T07:18:44.680Z,0.00
2019-05-05T07:19:44.951Z,0.00
2019-05-05T07:20:44.775Z,0.00
2019-05-05T07:21:44.430Z,0.00
2019-05-05T07:22:58.467Z,0.00
2019-05-05T07:23:44.654Z,0.00
2019-05-05T07:24:44.397Z,0.00
2019-05-05T07:25:45.957Z,0.00
2019-05-05T07:26:44.751Z,0.00
2019-05-05T07:27:44.414Z,0.00
2019-05-05T07:28:44.786Z,0.00
2019-05-05T07:29:44.361Z,0.00
2019-05-05T07:30:44.409Z,0.00
2019-05-05T07:31:44.798Z,0.00
2019-05-05T07:32:44.405Z,0.00
2019-05-05T07:33:44.337Z,0.00
2019-05-05T07:34:44.353Z,0.00
2019-05-05T07:35:55.342Z,0.00
2019-05-05T07:36:44.805Z,0.00
2019-05-05T07:37:44.288Z,0.00
2019-05-05T07:38:44.346Z,0.00
2019-05-05T07:39:44.665Z,0.00
2019-05-05T07:40:44.278Z,0.00
2019-05-05T07:41:44.813Z,0.00
2019-05-05T07:42:44.759Z,0.00
2019-05-05T07:43:44.227Z,0.00
2019-05-05T07:44:44.239Z,0.00
2019-05-05T07:45:44.582Z,0.00
2019-05-05T07:46:44.227Z,0.00
2019-05-05T07:47:47.204Z,0.00
2019-05-05T07:48:44.372Z,0.00
2019-05-05T07:49:44.289Z,0.00
2019-05-05T07:50:58.665Z,0.00
2019-05-05T07:51:44.378Z,0.00
2019-05-05T07:52:44.578Z,0.00
2019-05-05T07:53:44.402Z,0.00
2019-05-05T07:54:44.165Z,0.00
2019-05-05T07:55:44.161Z,0.00
2019-05-05T07:56:44.511Z,0.00
2019-05-05T07:57:44.540Z,0.00
2019-05-05T07:58:44.142Z,0.00
2019-05-05T07:59:44.965Z,0.00
2019-05-05T08:00:44.087Z,0.00
2019-05-05T08:01:46.516Z,0.00
2019-05-05T08:02:44.446Z,0.00
2019-05-05T08:03:44.582Z,0.00
2019-05-05T08:04:44.093Z,0.00
2019-05-05T08:05:44.329Z,0.00
2019-05-05T08:06:44.561Z,0.00
2019-05-05T08:07:44.772Z,0.00
2019-05-05T08:08:44.421Z,0.00
2019-05-05T08:09:44.420Z,0.00
2019-05-05T08:10:44.026Z,0.00
2019-05-05T08:11:44.063Z,0.00
2019-05-05T08:12:44.467Z,0.00
2019-05-05T08:13:44.446Z,0.00
2019-05-05T08:14:44.407Z,0.00
2019-05-05T08:15:56.267Z,0.00
2019-05-05T08:16:44.279Z,0.00
2019-05-05T08:17:44.741Z,0.00
2019-05-05T08:18:43.989Z,0.00
2019-05-05T08:19:43.985Z,0.00
2019-05-05T08:20:44.382Z,0.00
2019-05-05T08:21:43.977Z,0.00
2019-05-05T08:22:44.470Z,0.00
2019-05-05T08:23:44.775Z,0.00
2019-05-05T08:24:44.013Z,0.00
2019-05-05T08:25:45.370Z,0.00
2019-05-05T08:26:44.252Z,0.00
2019-05-05T08:27:44.708Z,0.00
2019-05-05T08:28:45.867Z,0.00
2019-05-05T08:29:43.892Z,0.00
2019-05-05T08:30:44.207Z,0.00
2019-05-05T08:31:44.292Z,0.00
2019-05-05T08:32:43.895Z,0.00
2019-05-05T08:33:44.283Z,0.00
2019-05-05T08:34:57.357Z,0.00
2019-05-05T08:35:44.843Z,0.00
2019-05-05T08:36:44.650Z,0.00
2019-05-05T08:37:43.844Z,0.00
2019-05-05T08:38:44.153Z,0.00
2019-05-05T08:39:44.660Z,0.00
2019-05-05T08:40:44.199Z,0.00
2019-05-05T08:41:45.412Z,0.00
2019-05-05T08:42:44.567Z,0.00
2019-05-05T08:43:44.082Z,0.00
2019-05-05T08:44:44.736Z,0.00
2019-05-05T08:45:44.434Z,0.00
2019-05-05T08:46:44.577Z,0.00
2019-05-05T08:47:43.731Z,0.00
2019-05-05T08:48:44.696Z,0.00
2019-05-05T08:49:44.247Z,0.00
2019-05-05T08:50:43.976Z,0.00
2019-05-05T08:51:44.258Z,0.00
2019-05-05T08:52:44.477Z,0.00
2019-05-05T08:53:47.966Z,0.00
2019-05-05T08:54:44.625Z,0.00
2019-05-05T08:55:44.297Z,0.00
2019-05-05T08:56:44.717Z,0.00
2019-05-05T08:57:44.693Z,0.00
2019-05-05T08:58:43.944Z,0.00
2019-05-05T08:59:43.973Z,0.00
2019-05-05T09:00:44.374Z,0.00
2019-05-05T09:01:44.914Z,0.00
2019-05-05T09:02:43.805Z,0.00
2019-05-05T09:03:44.406Z,0.00
2019-05-05T09:04:44.654Z,0.00
2019-05-05T09:05:43.835Z,0.00
2019-05-05T09:06:43.894Z,0.00
2019-05-05T09:07:44.161Z,0.00
2019-05-05T09:08:44.161Z,0.00
2019-05-05T09:09:44.159Z,0.00
2019-05-05T09:10:44.829Z,0.00
2019-05-05T09:11:43.910Z,0.00
2019-05-05T09:12:43.762Z,0.00
2019-05-05T09:13:44.699Z,0.00
2019-05-05T09:14:44.889Z,0.00
2019-05-05T09:15:44.347Z,0.00
2019-05-05T09:16:44.804Z,0.00
2019-05-05T09:17:43.984Z,0.00
2019-05-05T09:18:44.225Z,0.00
2019-05-05T09:19:44.890Z,0.00
2019-05-05T09:20:44.599Z,0.00
2019-05-05T09:21:44.788Z,0.00
2019-05-05T09:22:44.598Z,0.00
2019-05-05T09:23:58.642Z,0.00
2019-05-05T09:24:44.513Z,0.00
2019-05-05T09:25:44.670Z,0.00
2019-05-05T09:26:43.719Z,0.00
2019-05-05T09:27:44.250Z,0.00
2019-05-05T09:28:44.565Z,0.00
2019-05-05T09:29:44.054Z,0.00
2019-05-05T09:30:44.392Z,0.00
2019-05-05T09:31:45.072Z,0.00
2019-05-05T09:32:43.853Z,0.00
2019-05-05T09:33:44.212Z,0.00
2019-05-05T09:34:43.756Z,0.00
2019-05-05T09:35:43.672Z,0.00
2019-05-05T09:36:43.940Z,0.00
2019-05-05T09:37:44.328Z,0.00
2019-05-05T09:38:45.022Z,0.00
2019-05-05T09:39:43.825Z,0.00
2019-05-05T09:40:43.960Z,0.00
2019-05-05T09:41:44.568Z,0.00
2019-05-05T09:42:44.317Z,0.00
2019-05-05T09:43:44.610Z,0.00
2019-05-05T09:44:43.885Z,0.00
2019-05-05T09:45:44.133Z,0.00
2019-05-05T09:46:44.659Z,0.00
2019-05-05T09:47:44.926Z,0.00
2019-05-05T09:48:44.006Z,0.00
2019-05-05T09:49:44.558Z,0.00
2019-05-05T09:50:43.649Z,0.00
2019-05-05T09:51:44.023Z,0.00
2019-05-05T09:52:44.358Z,0.00
2019-05-05T09:53:44.870Z,0.00
2019-05-05T09:54:43.817Z,0.00
2019-05-05T09:55:44.329Z,0.00
2019-05-05T09:56:44.449Z,5.63
2019-05-05T09:57:43.784Z,5.63
2019-05-05T09:58:44.062Z,5.63
2019-05-05T09:59:44.136Z,5.63
2019-05-05T10:00:44.184Z,5.63
2019-05-05T10:01:44.533Z,5.63
2019-05-05T10:02:44.137Z,5.63
2019-05-05T10:03:44.667Z,5.63
2019-05-05T10:04:44.122Z,5.63
2019-05-05T10:05:43.401Z,5.63
2019-05-05T10:06:47.355Z,5.63
2019-05-05T10:07:44.087Z,5.63
2019-05-05T10:08:44.619Z,5.63
2019-05-05T10:09:43.752Z,5.63
2019-05-05T10:10:44.233Z,5.63
2019-05-05T10:11:44.831Z,5.63
2019-05-05T10:12:44.584Z,5.63
2019-05-05T10:13:44.247Z,5.63
2019-05-05T10:14:44.891Z,5.63
2019-05-05T10:15:44.382Z,5.63
2019-05-05T10:16:43.245Z,5.63
2019-05-05T10:17:42.951Z,5.63
2019-05-05T10:18:44.676Z,11.25
2019-05-05T10:19:44.034Z,11.25
2019-05-05T10:20:42.888Z,11.25
2019-05-05T10:21:44.392Z,11.25
2019-05-05T10:22:43.838Z,11.25
2019-05-05T10:23:43.607Z,11.25
2019-05-05T10:24:44.320Z,11.25
2019-05-05T10:25:44.617Z,11.25
2019-05-05T10:26:43.801Z,11.25
2019-05-05T10:27:47.499Z,11.25
2019-05-05T10:28:44.449Z,11.25
2019-05-05T10:29:44.201Z,11.25
2019-05-05T10:30:42.810Z,11.25
2019-05-05T10:31:43.715Z,11.25
2019-05-05T10:32:43.781Z,11.25
2019-05-05T10:33:42.799Z,11.25
2019-05-05T10:34:44.021Z,11.25
2019-05-05T10:35:43.786Z,11.25
2019-05-05T10:36:44.250Z,11.25
2019-05-05T10:37:43.873Z,11.25
2019-05-05T10:38:44.291Z,11.25
2019-05-05T10:39:43.979Z,11.25
2019-05-05T10:40:44.614Z,11.25
2019-05-05T10:41:44.137Z,11.25
2019-05-05T10:42:44.225Z,11.25
2019-05-05T10:43:43.716Z,11.25
2019-05-05T10:44:44.443Z,11.25
2019-05-05T10:45:44.059Z,11.25
2019-05-05T10:46:42.891Z,11.25
2019-05-05T10:47:44.074Z,11.25
2019-05-05T10:48:44.433Z,11.25
2019-05-05T10:49:44.145Z,11.25
2019-05-05T10:50:44.298Z,16.88
2019-05-05T10:51:43.960Z,16.88
2019-05-05T10:52:44.240Z,16.88
2019-05-05T10:53:43.814Z,16.88
2019-05-05T10:54:44.828Z,16.88
2019-05-05T10:55:44.831Z,16.88
2019-05-05T10:56:42.897Z,16.88
2019-05-05T10:57:43.585Z,16.88
2019-05-05T10:58:44.157Z,16.88
2019-05-05T10:59:43.518Z,16.88
2019-05-05T11:00:44.368Z,16.88
2019-05-05T11:01:42.744Z,16.88
2019-05-05T11:02:42.539Z,16.88
2019-05-05T11:03:44.552Z,16.88
2019-05-05T11:04:44.207Z,16.88
2019-05-05T11:05:44.553Z,16.88
2019-05-05T11:06:44.057Z,16.88
2019-05-05T11:07:42.522Z,16.88
2019-05-05T11:08:42.511Z,16.88
2019-05-05T11:09:44.227Z,16.88
2019-05-05T11:10:44.589Z,16.88
2019-05-05T11:11:43.857Z,16.88
2019-05-05T11:12:44.252Z,16.88
2019-05-05T11:13:45.021Z,16.88
2019-05-05T11:14:44.227Z,16.88
2019-05-05T11:15:44.200Z,16.88
2019-05-05T11:16:43.893Z,16.88
2019-05-05T11:17:43.924Z,16.88
2019-05-05T11:18:42.433Z,22.50
2019-05-05T11:19:44.127Z,16.88
2019-05-05T11:20:44.430Z,16.88
2019-05-05T11:21:43.573Z,16.88
2019-05-05T11:22:43.840Z,16.88
2019-05-05T11:23:44.633Z,16.88
2019-05-05T11:24:55.165Z,16.88
2019-05-05T11:25:44.142Z,16.88
2019-05-05T11:26:44.457Z,16.88
2019-05-05T11:27:44.060Z,16.88
2019-05-05T11:28:44.383Z,16.88
2019-05-05T11:29:43.725Z,16.88
2019-05-05T11:30:42.308Z,22.50
2019-05-05T11:31:42.547Z,22.50
2019-05-05T11:32:44.015Z,33.75
2019-05-05T11:33:43.695Z,50.63
2019-05-05T11:34:44.176Z,95.63
2019-05-05T11:35:44.330Z,129.38
2019-05-05T11:36:43.862Z,123.75
2019-05-05T11:37:43.800Z,67.50
2019-05-05T11:38:44.405Z,50.63
2019-05-05T11:39:44.413Z,50.63
2019-05-05T11:40:43.810Z,50.63
2019-05-05T11:41:43.879Z,50.63
2019-05-05T11:42:42.228Z,50.63
2019-05-05T11:43:42.535Z,50.63
2019-05-05T11:44:42.207Z,50.63
2019-05-05T11:45:43.827Z,56.25
2019-05-05T11:46:44.131Z,56.25
2019-05-05T11:47:44.303Z,56.25
2019-05-05T11:48:43.865Z,56.25
2019-05-05T11:49:44.151Z,56.25
2019-05-05T11:50:43.673Z,56.25
2019-05-05T11:51:43.710Z,56.25
2019-05-05T11:52:44.320Z,56.25
2019-05-05T11:53:42.136Z,61.88
2019-05-05T11:54:43.833Z,56.25
2019-05-05T11:55:44.233Z,56.25
2019-05-05T11:56:44.528Z,56.25
2019-05-05T11:57:43.733Z,61.88
2019-05-05T11:58:44.045Z,61.88
2019-05-05T11:59:42.134Z,61.88
2019-05-05T12:00:43.881Z,61.88
2019-05-05T12:01:44.084Z,61.88
2019-05-05T12:02:43.845Z,61.88
2019-05-05T12:03:44.139Z,61.88
2019-05-05T12:04:42.091Z,61.88
2019-05-05T12:05:44.083Z,61.88
2019-05-05T12:06:44.110Z,61.88
2019-05-05T12:07:43.678Z,61.88
2019-05-05T12:08:45.450Z,61.88
2019-05-05T12:09:44.261Z,61.88
2019-05-05T12:10:43.809Z,61.88
2019-05-05T12:11:43.732Z,61.88
2019-05-05T12:12:43.819Z,61.88
2019-05-05T12:13:43.813Z,61.88
2019-05-05T12:14:42.041Z,61.88
2019-05-05T12:15:42.046Z,61.88
2019-05-05T12:16:43.776Z,61.88
2019-05-05T12:17:44.070Z,67.50
2019-05-05T12:18:42.025Z,67.50
2019-05-05T12:19:43.483Z,67.50
2019-05-05T12:20:43.987Z,73.13
2019-05-05T12:21:44.053Z,67.50
2019-05-05T12:22:41.994Z,67.50
2019-05-05T12:23:44.218Z,67.50
2019-05-05T12:24:44.162Z,67.50
2019-05-05T12:25:43.608Z,67.50
2019-05-05T12:26:43.640Z,67.50
2019-05-05T12:27:41.967Z,73.13
2019-05-05T12:28:43.896Z,67.50
2019-05-05T12:29:44.080Z,67.50
2019-05-05T12:30:41.958Z,61.88
2019-05-05T12:31:41.939Z,67.50
2019-05-05T12:32:43.751Z,67.50
2019-05-05T12:33:44.054Z,67.50
2019-05-05T12:34:41.969Z,61.88
2019-05-05T12:35:42.226Z,67.50
2019-05-05T12:36:41.939Z,67.50
2019-05-05T12:37:41.912Z,61.88
2019-05-05T12:38:43.773Z,61.88
2019-05-05T12:39:44.095Z,61.88
2019-05-05T12:40:44.147Z,67.50
2019-05-05T12:41:42.248Z,73.13
2019-05-05T12:42:43.861Z,73.13
2019-05-05T12:43:43.982Z,78.75
2019-05-05T12:44:41.888Z,73.13
2019-05-05T12:45:43.835Z,73.13
2019-05-05T12:46:44.096Z,73.13
2019-05-05T12:47:43.981Z,73.13
2019-05-05T12:48:43.690Z,61.88
2019-05-05T12:49:43.828Z,67.50
2019-05-05T12:50:41.863Z,73.13
2019-05-05T12:51:43.567Z,67.50
2019-05-05T12:52:43.698Z,73.13
2019-05-05T12:53:42.218Z,73.13
2019-05-05T12:54:43.935Z,73.13
2019-05-05T12:55:42.014Z,73.13
2019-05-05T12:56:41.844Z,73.13
2019-05-05T12:57:43.509Z,73.13
2019-05-05T12:58:43.875Z,73.13
2019-05-05T12:59:44.254Z,73.13
2019-05-05T13:00:43.489Z,73.13
2019-05-05T13:01:43.964Z,73.13
2019-05-05T13:02:41.840Z,73.13
2019-05-05T13:03:43.606Z,73.13
2019-05-05T13:04:41.813Z,73.13
2019-05-05T13:05:42.274Z,73.13
2019-05-05T13:06:41.832Z,73.13
2019-05-05T13:07:43.631Z,78.75
2019-05-05T13:08:41.856Z,73.13
2019-05-05T13:09:43.931Z,78.75
2019-05-05T13:10:41.796Z,78.75
2019-05-05T13:11:43.628Z,78.75
2019-05-05T13:12:43.620Z,78.75